Terminal Aerodrome Forecast
Issued by NWS Greer, SC

Home | Current Version | Previous Version | Text Only | Print | Product List | Glossary On
Versions: 1 2 3 4 5 6 7 8 9 10 11 12 13 14 15 16 17 18 19 20 21 22 23 24 25
634
FTUS42 KGSP 191954 AAB
TAFGSP
TAF AMD
KGSP 191954Z 1920/2018 04005KT 4SM BR OVC003
     FM200000 12003KT 1/2SM FG OVC003
     FM200900 VRB02KT 1/4SM FG OVC002
     FM201200 18003KT 1SM BR OVC003
     FM201400 19004KT P6SM OVC003
     FM201700 19006KT P6SM BKN008=

USA.gov is the U.S. government's official web portal to all federal, state and local government web resources and services.